X  Close Metar Aviation Weather Data     KNPA Naval Air Station Pensacola Forrest Sherman Field
Temperature
77°F Temperature
73°F Dewpoint
89% Humidity



Wind
0 MPH
0 KM/H
0 M/S
0 KTS



Calm
North
Current Conditions

Clear Clear
Pressure 1014.52 (hPa) - 29.96 (inHg)
Visibility 8.1 (mile) - 13 (km)
Airport
Airport-code KNPA

Location: Naval Air Station Pensacola Forrest Sherman Field
Distance: 14 (mi)

Metar:
KNPA 220656Z AUTO 00000KT 8SM CLR 25/23 A2996 RMK AO2 SLP148 T02500228 $

Time: 22-09-2021 01:56 CDT